Time,TemperatureF,DewpointF,PressureIn,WindDirection,WindDirectionDegrees,WindSpeedMPH,WindSpeedGustMPH,Humidity,HourlyPrecipIn,Conditions,Clouds,dailyrainin,SoftwareType,DateUTC
2017-01-20 00:00:00,34.3,33.5,29.19,SW,234,0.0,0.0,97,0.00,,,0.00,Wunderground v.1.15,2017-01-20 05:00:00,
2017-01-20 00:10:00,34.3,33.5,29.18,SW,223,0.0,3.0,97,0.00,,,0.00,Wunderground v.1.15,2017-01-20 05:10:00,
2017-01-20 00:20:00,34.3,33.5,29.17,SSW,207,2.0,3.0,97,0.00,,,0.00,Wunderground v.1.15,2017-01-20 05:20:00,
2017-01-20 00:30:00,34.2,33.4,29.17,SSW,197,3.0,4.0,97,0.00,,,0.00,Wunderground v.1.15,2017-01-20 05:30:00,
2017-01-20 00:39:00,34.3,33.8,29.17,SSW,198,4.0,5.0,98,0.00,,,0.00,Wunderground v.1.15,2017-01-20 05:39:00,
2017-01-20 00:45:00,34.3,33.8,29.17,SSW,196,4.0,5.0,98,0.00,,,0.00,Wunderground v.1.15,2017-01-20 05:45:00,
2017-01-20 00:55:00,34.4,33.9,29.16,South,188,5.0,5.0,98,0.00,,,0.00,Wunderground v.1.15,2017-01-20 05:55:00,
2017-01-20 01:05:00,34.4,33.9,29.16,South,189,5.0,6.0,98,0.00,,,0.00,Wunderground v.1.15,2017-01-20 06:05:00,
2017-01-20 01:10:00,34.4,33.9,29.16,South,190,5.0,5.0,98,0.00,,,0.00,Wunderground v.1.15,2017-01-20 06:10:00,
2017-01-20 01:20:00,34.4,33.9,29.15,SSW,192,5.0,7.0,98,0.00,,,0.00,Wunderground v.1.15,2017-01-20 06:20:00,
2017-01-20 01:30:00,34.4,33.9,29.15,SSW,198,5.0,5.0,98,0.00,,,0.00,Wunderground v.1.15,2017-01-20 06:30:00,
2017-01-20 01:40:00,34.5,34.0,29.15,SSW,199,5.0,5.0,98,0.00,,,0.00,Wunderground v.1.15,2017-01-20 06:40:00,
2017-01-20 01:50:00,34.6,34.1,29.15,South,187,5.0,6.0,98,0.00,,,0.00,Wunderground v.1.15,2017-01-20 06:50:00,
2017-01-20 02:00:00,34.6,34.1,29.15,SSW,192,6.0,7.0,98,0.00,,,0.00,Wunderground v.1.15,2017-01-20 07:00:00,
2017-01-20 02:10:00,34.6,34.1,29.14,SSW,194,6.0,6.0,98,0.00,,,0.00,Wunderground v.1.15,2017-01-20 07:10:00,
2017-01-20 02:20:00,34.6,34.1,29.14,SSW,192,6.0,7.0,98,0.00,,,0.00,Wunderground v.1.15,2017-01-20 07:20:00,
2017-01-20 02:29:00,34.6,34.1,29.14,SSW,212,7.0,7.0,98,0.00,,,0.00,Wunderground v.1.15,2017-01-20 07:29:00,
2017-01-20 02:35:00,34.7,34.2,29.14,SSW,203,6.0,7.0,98,0.00,,,0.00,Wunderground v.1.15,2017-01-20 07:35:00,
2017-01-20 02:45:00,34.7,34.2,29.14,SSW,200,5.0,5.0,98,0.00,,,0.00,Wunderground v.1.15,2017-01-20 07:45:00,
2017-01-20 02:54:00,34.7,34.2,29.13,SSW,198,5.0,6.0,98,0.00,,,0.00,Wunderground v.1.15,2017-01-20 07:54:00,
2017-01-20 03:00:00,34.7,34.2,29.13,SSW,203,4.0,4.0,98,0.00,,,0.00,Wunderground v.1.15,2017-01-20 08:00:00,
2017-01-20 03:10:00,34.7,34.2,29.13,SSW,213,4.0,4.0,98,0.00,,,0.00,Wunderground v.1.15,2017-01-20 08:10:00,
2017-01-20 03:19:00,34.7,34.2,29.13,SSW,209,4.0,5.0,98,0.00,,,0.00,Wunderground v.1.15,2017-01-20 08:19:00,
2017-01-20 03:25:00,34.6,34.1,29.12,SSW,200,4.0,5.0,98,0.00,,,0.00,Wunderground v.1.15,2017-01-20 08:25:00,
2017-01-20 03:35:00,34.6,34.1,29.12,SSW,196,3.0,5.0,98,0.00,,,0.00,Wunderground v.1.15,2017-01-20 08:35:00,
2017-01-20 03:44:00,34.5,34.0,29.11,SSW,196,4.0,5.0,98,0.00,,,0.00,Wunderground v.1.15,2017-01-20 08:44:00,
2017-01-20 03:50:00,34.5,34.0,29.11,SSW,196,3.0,5.0,98,0.00,,,0.00,Wunderground v.1.15,2017-01-20 08:50:00,
2017-01-20 04:00:00,34.5,34.0,29.10,SSW,195,4.0,5.0,98,0.00,,,0.00,Wunderground v.1.15,2017-01-20 09:00:00,
2017-01-20 04:09:00,34.5,34.0,29.09,South,191,3.0,5.0,98,0.00,,,0.00,Wunderground v.1.15,2017-01-20 09:09:00,
2017-01-20 04:15:00,34.4,33.9,29.09,South,188,2.0,5.0,98,0.00,,,0.00,Wunderground v.1.15,2017-01-20 09:15:00,
2017-01-20 04:25:00,34.4,33.9,29.09,South,179,2.0,5.0,98,0.00,,,0.00,Wunderground v.1.15,2017-01-20 09:25:00,
2017-01-20 04:35:00,34.4,33.9,29.08,SSE,165,3.0,6.0,98,0.00,,,0.00,Wunderground v.1.15,2017-01-20 09:35:00,
2017-01-20 04:40:00,34.4,33.9,29.08,SE,142,4.0,5.0,98,0.00,,,0.00,Wunderground v.1.15,2017-01-20 09:40:00,
2017-01-20 04:50:00,34.5,34.0,29.08,SE,144,2.0,5.0,98,0.00,,,0.00,Wunderground v.1.15,2017-01-20 09:50:00,
2017-01-20 05:00:00,34.5,34.0,29.07,SE,144,4.0,4.0,98,0.00,,,0.00,Wunderground v.1.15,2017-01-20 10:00:00,
2017-01-20 05:10:00,34.6,34.1,29.07,SSE,149,3.0,3.0,98,0.00,,,0.00,Wunderground v.1.15,2017-01-20 10:10:00,
2017-01-20 05:20:00,34.7,34.2,29.07,SSE,150,3.0,6.0,98,0.00,,,0.00,Wunderground v.1.15,2017-01-20 10:20:00,
2017-01-20 05:30:00,34.6,34.1,29.07,SSE,150,4.0,5.0,98,0.00,,,0.00,Wunderground v.1.15,2017-01-20 10:30:00,
2017-01-20 05:35:00,34.6,34.1,29.07,SSE,150,4.0,5.0,98,0.00,,,0.00,Wunderground v.1.15,2017-01-20 10:35:00,
2017-01-20 05:45:00,34.6,34.1,29.06,SSE,150,3.0,5.0,98,0.00,,,0.00,Wunderground v.1.15,2017-01-20 10:45:00,
2017-01-20 05:55:00,34.6,33.8,29.05,SSE,150,4.0,7.0,97,0.00,,,0.00,Wunderground v.1.15,2017-01-20 10:55:00,
2017-01-20 06:05:00,34.6,33.8,29.05,SSE,155,4.0,5.0,97,0.00,,,0.00,Wunderground v.1.15,2017-01-20 11:05:00,
2017-01-20 06:15:00,34.6,33.8,29.05,SSE,157,3.0,5.0,97,0.00,,,0.00,Wunderground v.1.15,2017-01-20 11:15:00,
2017-01-20 06:25:00,34.7,33.9,29.05,SSE,159,3.0,5.0,97,0.00,,,0.00,Wunderground v.1.15,2017-01-20 11:25:00,
2017-01-20 06:30:00,34.8,34.3,29.05,SSE,161,3.0,3.0,98,0.00,,,0.00,Wunderground v.1.15,2017-01-20 11:30:00,
2017-01-20 06:35:00,34.8,34.3,29.05,SSE,161,3.0,4.0,98,0.00,,,0.00,Wunderground v.1.15,2017-01-20 11:35:00,
2017-01-20 06:45:00,34.9,34.4,29.05,SSE,155,3.0,5.0,98,0.00,,,0.00,Wunderground v.1.15,2017-01-20 11:45:00,
2017-01-20 06:55:00,35.1,34.3,29.04,SSE,154,4.0,8.0,97,0.00,,,0.00,Wunderground v.1.15,2017-01-20 11:55:00,
2017-01-20 07:05:00,35.0,34.2,29.04,South,173,5.0,6.0,97,0.00,,,0.00,Wunderground v.1.15,2017-01-20 12:05:00,
2017-01-20 07:15:00,35.0,34.2,29.03,South,169,5.0,7.0,97,0.00,,,0.00,Wunderground v.1.15,2017-01-20 12:15:00,
2017-01-20 07:20:00,35.1,34.3,29.03,South,173,5.0,5.0,97,0.00,,,0.00,Wunderground v.1.15,2017-01-20 12:20:00,
2017-01-20 07:25:00,35.1,34.3,29.02,SSE,168,4.0,5.0,97,0.00,,,0.00,Wunderground v.1.15,2017-01-20 12:25:00,
2017-01-20 07:35:00,35.2,34.4,29.03,SSW,203,6.0,6.0,97,0.00,,,0.00,Wunderground v.1.15,2017-01-20 12:35:00,
2017-01-20 07:45:00,35.6,34.8,29.03,SW,221,6.0,6.0,97,0.00,,,0.00,Wunderground v.1.15,2017-01-20 12:45:00,
2017-01-20 07:54:00,35.8,35.0,29.02,SSW,206,6.0,6.0,97,0.00,,,0.00,Wunderground v.1.15,2017-01-20 12:54:00,
2017-01-20 08:00:00,35.9,35.1,29.02,SW,218,6.0,9.0,97,0.00,,,0.00,Wunderground v.1.15,2017-01-20 13:00:00,
2017-01-20 08:10:00,35.9,35.1,29.02,SSW,213,6.0,6.0,97,0.00,,,0.00,Wunderground v.1.15,2017-01-20 13:10:00,
2017-01-20 08:19:00,36.0,35.2,29.02,SW,223,6.0,7.0,97,0.00,,,0.00,Wunderground v.1.15,2017-01-20 13:19:00,
2017-01-20 08:25:00,36.0,35.2,29.02,West,260,6.0,7.0,97,0.00,,,0.00,Wunderground v.1.15,2017-01-20 13:25:00,
2017-01-20 08:35:00,36.2,35.4,29.01,SW,224,7.0,10.0,97,0.00,,,0.00,Wunderground v.1.15,2017-01-20 13:35:00,
2017-01-20 08:44:00,36.2,35.2,29.00,SSW,207,7.0,7.0,96,0.00,,,0.00,Wunderground v.1.15,2017-01-20 13:44:00,
2017-01-20 08:50:00,36.3,35.5,29.00,SW,223,5.0,6.0,97,0.00,,,0.00,Wunderground v.1.15,2017-01-20 13:50:00,
2017-01-20 09:00:00,36.5,35.5,29.00,SW,225,6.0,6.0,96,0.00,,,0.00,Wunderground v.1.15,2017-01-20 14:00:00,
2017-01-20 09:09:00,36.7,35.7,29.00,SW,217,7.0,7.0,96,0.00,,,0.00,Wunderground v.1.15,2017-01-20 14:09:00,
2017-01-20 09:20:00,36.8,35.8,29.00,SW,220,7.0,7.0,96,0.00,,,0.00,Wunderground v.1.15,2017-01-20 14:20:00,
2017-01-20 09:30:00,37.0,36.0,29.00,SW,217,6.0,7.0,96,0.00,,,0.00,Wunderground v.1.15,2017-01-20 14:30:00,
2017-01-20 09:39:00,37.2,35.9,29.00,SSW,212,6.0,6.0,95,0.00,,,0.00,Wunderground v.1.15,2017-01-20 14:39:00,
2017-01-20 09:45:00,37.4,36.1,29.00,SW,227,5.0,6.0,95,0.00,,,0.00,Wunderground v.1.15,2017-01-20 14:45:00,
2017-01-20 09:55:00,37.6,36.3,29.00,SSE,166,5.0,5.0,95,0.00,,,0.00,Wunderground v.1.15,2017-01-20 14:55:00,
2017-01-20 10:04:00,37.7,36.4,29.00,SSW,198,6.0,10.0,95,0.00,,,0.00,Wunderground v.1.15,2017-01-20 15:04:00,
2017-01-20 10:10:00,37.7,36.1,29.00,South,177,7.0,7.0,94,0.00,,,0.00,Wunderground v.1.15,2017-01-20 15:10:00,
2017-01-20 10:30:00,38.3,36.7,29.00,SSE,163,6.0,6.0,94,0.00,,,0.00,Wunderground v.1.15,2017-01-20 15:30:00,
2017-01-20 10:45:00,38.7,36.9,28.99,SSE,167,6.0,7.0,93,0.00,,,0.00,Wunderground v.1.15,2017-01-20 15:45:00,
2017-01-20 10:55:00,39.1,37.2,28.99,South,187,5.0,6.0,93,0.00,,,0.00,Wunderground v.1.15,2017-01-20 15:55:00,
2017-01-20 11:05:00,39.5,37.4,28.99,SSW,192,5.0,7.0,92,0.00,,,0.00,Wunderground v.1.15,2017-01-20 16:05:00,
2017-01-20 11:15:00,39.8,37.7,28.98,SSW,211,6.0,6.0,92,0.00,,,0.00,Wunderground v.1.15,2017-01-20 16:15:00,
2017-01-20 11:24:00,40.1,37.7,28.97,SSW,196,6.0,9.0,91,0.00,,,0.00,Wunderground v.1.15,2017-01-20 16:24:00,
2017-01-20 11:30:00,40.3,37.9,28.97,South,173,6.0,6.0,91,0.00,,,0.00,Wunderground v.1.15,2017-01-20 16:30:00,
2017-01-20 11:40:00,40.7,38.0,28.96,South,182,5.0,6.0,90,0.00,,,0.00,Wunderground v.1.15,2017-01-20 16:40:00,
2017-01-20 11:50:00,40.9,38.2,28.96,SSW,194,5.0,5.0,90,0.00,,,0.00,Wunderground v.1.15,2017-01-20 16:50:00,
2017-01-20 12:00:00,41.1,38.1,28.95,SSW,195,5.0,5.0,89,0.00,,,0.00,Wunderground v.1.15,2017-01-20 17:00:00,
2017-01-20 12:09:00,41.3,38.3,28.95,South,188,5.0,6.0,89,0.00,,,0.00,Wunderground v.1.15,2017-01-20 17:09:00,
2017-01-20 12:15:00,41.4,38.4,28.94,South,180,6.0,6.0,89,0.00,,,0.00,Wunderground v.1.15,2017-01-20 17:15:00,
2017-01-20 12:25:00,41.6,38.6,28.94,South,190,5.0,5.0,89,0.00,,,0.00,Wunderground v.1.15,2017-01-20 17:25:00,
2017-01-20 12:34:00,41.8,38.5,28.94,South,185,5.0,6.0,88,0.00,,,0.00,Wunderground v.1.15,2017-01-20 17:34:00,
2017-01-20 12:40:00,41.8,38.5,28.94,SSW,212,5.0,7.0,88,0.00,,,0.00,Wunderground v.1.15,2017-01-20 17:40:00,
2017-01-20 12:50:00,42.0,38.7,28.93,South,185,5.0,6.0,88,0.00,,,0.00,Wunderground v.1.15,2017-01-20 17:50:00,
2017-01-20 13:00:00,42.1,38.8,28.93,South,185,6.0,7.0,88,0.00,,,0.00,Wunderground v.1.15,2017-01-20 18:00:00,
2017-01-20 13:10:00,42.3,38.7,28.92,SSW,196,6.0,6.0,87,0.00,,,0.00,Wunderground v.1.15,2017-01-20 18:10:00,
2017-01-20 13:20:00,42.6,39.0,28.92,South,185,5.0,6.0,87,0.00,,,0.00,Wunderground v.1.15,2017-01-20 18:20:00,
2017-01-20 13:30:00,43.0,39.4,28.91,SSW,193,5.0,5.0,87,0.00,,,0.00,Wunderground v.1.15,2017-01-20 18:30:00,
2017-01-20 13:40:00,43.3,39.4,28.91,SSW,192,5.0,7.0,86,0.00,,,0.00,Wunderground v.1.15,2017-01-20 18:40:00,
2017-01-20 13:49:00,43.7,39.8,28.90,SE,134,5.0,5.0,86,0.00,,,0.00,Wunderground v.1.15,2017-01-20 18:49:00,
2017-01-20 13:55:00,43.8,39.9,28.91,SE,140,4.0,5.0,86,0.00,,,0.00,Wunderground v.1.15,2017-01-20 18:55:00,
2017-01-20 14:05:00,43.7,39.8,28.91,SSE,163,4.0,5.0,86,0.00,,,0.00,Wunderground v.1.15,2017-01-20 19:05:00,
2017-01-20 14:14:00,43.6,39.7,28.91,SSE,160,1.0,5.0,86,0.00,,,0.00,Wunderground v.1.15,2017-01-20 19:14:00,
2017-01-20 14:20:00,43.7,40.1,28.91,SSE,161,0.0,5.0,87,0.00,,,0.00,Wunderground v.1.15,2017-01-20 19:20:00,
2017-01-20 14:30:00,43.5,39.9,28.90,South,175,2.0,5.0,87,0.00,,,0.00,Wunderground v.1.15,2017-01-20 19:30:00,
2017-01-20 14:40:00,43.4,39.8,28.91,South,178,5.0,6.0,87,0.00,,,0.00,Wunderground v.1.15,2017-01-20 19:40:00,
2017-01-20 14:45:00,43.3,39.7,28.91,South,186,5.0,6.0,87,0.00,,,0.00,Wunderground v.1.15,2017-01-20 19:45:00,
2017-01-20 14:55:00,43.3,39.7,28.91,South,182,5.0,6.0,87,0.00,,,0.00,Wunderground v.1.15,2017-01-20 19:55:00,
2017-01-20 15:05:00,43.4,39.8,28.91,SSW,198,4.0,5.0,87,0.00,,,0.00,Wunderground v.1.15,2017-01-20 20:05:00,
2017-01-20 15:15:00,43.3,39.7,28.91,SSW,196,3.0,5.0,87,0.00,,,0.00,Wunderground v.1.15,2017-01-20 20:15:00,
2017-01-20 15:25:00,43.2,39.6,28.92,SSW,195,2.0,5.0,87,0.00,,,0.00,Wunderground v.1.15,2017-01-20 20:25:00,